Time;durP1;ratioP1;P1;durP2;ratioP2;P2;SDS_P1;SDS_P2;PMS_P1;PMS_P2;Temp;Humidity;BMP_temperature;BMP_pressure;BME280_temperature;BME280_humidity;BME280_pressure;Samples;Min_cycle;Max_cycle;Signal;HPM_P1;HPM_P2
2021/04/14 00:00:35;;;;;;;8.63;3.17;;;3.90;77.70;;;3.56;65.18;102086.38;4993079;28;20053;-80
2021/04/14 00:03:06;;;;;;;9.18;3.85;;;3.90;77.80;;;3.51;65.36;102083.97;4992916;28;20067;-80
2021/04/14 00:05:36;;;;;;;8.18;3.72;;;3.90;78.00;;;3.43;65.40;102082.75;4993739;28;20047;-80
2021/04/14 00:08:03;;;;;;;11.43;4.43;;;3.80;78.00;;;3.38;65.98;102080.34;4992092;28;20046;-80
2021/04/14 00:10:34;;;;;;;7.95;4.00;;;3.80;77.90;;;3.35;65.82;102072.50;4993588;28;20166;-80
2021/04/14 00:13:03;;;;;;;6.82;3.72;;;3.80;78.10;;;3.35;65.74;102082.38;4991320;28;20050;-80
2021/04/14 00:15:35;;;;;;;7.78;3.28;;;3.70;78.20;;;3.31;66.05;102084.38;4993720;28;20038;-80
2021/04/14 00:18:03;;;;;;;12.55;3.72;;;3.70;78.40;;;3.26;66.21;102086.53;4992407;28;20053;-80
2021/04/14 00:20:29;;;;;;;7.68;3.58;;;3.70;78.40;;;3.25;66.02;102082.09;4993598;28;20522;-80
2021/04/14 00:22:56;;;;;;;9.93;3.47;;;3.60;78.50;;;3.30;65.89;102079.97;4991711;28;20183;-80
2021/04/14 00:25:27;;;;;;;8.20;3.30;;;3.60;78.50;;;3.23;66.09;102075.94;4993333;28;20042;-80
2021/04/14 00:27:54;;;;;;;9.02;3.58;;;3.60;78.70;;;3.22;66.84;102079.59;4990906;28;20062;-80
2021/04/14 00:30:23;;;;;;;7.47;3.22;;;3.60;78.80;;;3.18;66.68;102088.81;4993219;28;20089;-80
2021/04/14 00:32:51;;;;;;;9.65;3.75;;;3.60;78.90;;;3.16;66.29;102079.97;4993195;28;20078;-80
2021/04/14 00:35:20;;;;;;;10.70;3.50;;;3.50;79.00;;;3.18;66.68;102073.56;4991707;28;20085;-80
2021/04/14 00:37:47;;;;;;;9.25;3.47;;;3.50;79.10;;;3.18;65.82;102070.00;4993121;28;20495;-80
2021/04/14 00:40:19;;;;;;;12.27;3.78;;;3.50;79.10;;;3.16;66.64;102079.97;4992029;28;20053;-80
2021/04/14 00:42:45;;;;;;;9.15;3.75;;;3.40;79.20;;;3.11;66.56;102067.69;4992883;28;20047;-80
2021/04/14 00:45:15;;;;;;;9.15;3.42;;;3.40;79.40;;;3.09;66.67;102072.31;4993090;28;20068;-80
2021/04/14 00:47:42;;;;;;;8.10;3.63;;;3.40;79.30;;;3.07;66.28;102071.56;4992798;28;20054;-80
2021/04/14 00:50:13;;;;;;;10.23;4.03;;;3.40;79.40;;;3.04;66.77;102077.09;4993353;28;20577;-80
2021/04/14 00:52:40;;;;;;;8.80;3.78;;;3.40;79.20;;;3.10;66.42;102066.00;4992670;28;20104;-80
2021/04/14 00:55:12;;;;;;;7.70;3.75;;;3.40;79.40;;;3.12;65.58;102066.75;4991677;28;20042;-80
2021/04/14 00:57:39;;;;;;;9.38;3.53;;;3.30;79.30;;;3.10;65.69;102067.78;4993412;28;20105;-80
2021/04/14 01:00:08;;;;;;;7.15;3.58;;;3.30;79.30;;;3.22;65.39;102077.78;4993359;28;20054;-80
2021/04/14 01:02:35;;;;;;;6.80;3.47;;;3.30;79.50;;;3.28;65.53;102074.69;4993251;28;20051;-80
2021/04/14 01:05:05;;;;;;;6.75;3.60;;;3.30;79.60;;;3.20;65.48;102074.34;4995712;28;20050;-80
2021/04/14 01:07:33;;;;;;;8.60;3.90;;;3.30;79.70;;;3.16;66.02;102072.81;4995782;28;21548;-80
2021/04/14 01:09:59;;;;;;;8.50;3.85;;;3.30;79.70;;;3.19;66.08;102061.81;4996571;28;20047;-80
2021/04/14 01:12:26;;;;;;;9.65;3.80;;;3.30;79.70;;;3.10;66.12;102066.00;4997120;28;20042;-80
2021/04/14 01:14:53;;;;;;;9.15;3.60;;;3.30;79.70;;;3.10;66.34;102066.00;4994122;28;20054;-80
2021/04/14 01:17:20;;;;;;;7.70;3.50;;;3.30;79.70;;;3.03;66.36;102070.03;4997007;28;20817;-80
2021/04/14 01:19:47;;;;;;;9.02;3.55;;;3.30;79.80;;;3.01;65.80;102058.50;4996710;28;20046;-80
2021/04/14 01:22:14;;;;;;;7.63;3.50;;;3.30;79.80;;;3.02;66.13;102065.59;4994586;28;20080;-80
2021/04/14 01:24:41;;;;;;;8.75;3.70;;;3.20;79.90;;;3.09;66.22;102063.38;4996464;28;20491;-80
2021/04/14 01:27:09;;;;;;;9.73;3.88;;;3.20;79.80;;;3.05;66.56;102060.03;4995119;28;20050;-80
2021/04/14 01:29:36;;;;;;;7.68;3.90;;;3.20;80.00;;;2.95;66.25;102064.25;4996072;28;20491;-80
2021/04/14 01:32:03;;;;;;;11.88;4.00;;;3.20;79.90;;;2.88;66.65;102065.63;4995731;28;20039;-80
2021/04/14 01:34:30;;;;;;;7.55;3.53;;;3.10;80.10;;;2.83;67.24;102065.03;4996152;28;20061;-80
2021/04/14 01:36:57;;;;;;;15.57;4.78;;;3.10;80.20;;;2.86;66.47;102062.16;4995760;28;20035;-80
2021/04/14 01:39:24;;;;;;;11.52;3.60;;;3.10;80.20;;;2.85;67.16;102057.72;4996364;28;20051;-80
2021/04/14 01:41:51;;;;;;;10.00;4.22;;;3.10;80.20;;;2.78;66.79;102059.06;4995553;28;20121;-80
2021/04/14 01:44:18;;;;;;;12.57;4.05;;;3.10;80.30;;;2.77;67.52;102054.66;4995404;28;20053;-80
2021/04/14 01:46:45;;;;;;;6.45;3.50;;;3.00;80.30;;;2.73;67.04;102060.22;4988381;28;20054;-80
2021/04/14 01:49:12;;;;;;;8.52;3.58;;;3.00;80.30;;;2.74;67.25;102061.06;4995942;28;20121;-80
2021/04/14 01:51:39;;;;;;;9.05;4.10;;;3.00;80.30;;;2.78;67.31;102059.94;4996270;28;20136;-80
2021/04/14 01:54:07;;;;;;;11.20;3.75;;;3.00;80.30;;;2.81;66.66;102059.75;4995212;28;20073;-80
2021/04/14 01:56:35;;;;;;;8.70;3.83;;;3.00;80.60;;;2.71;67.72;102053.22;4995824;28;20038;-80
2021/04/14 01:59:02;;;;;;;8.70;3.58;;;3.00;80.60;;;2.71;66.83;102056.78;4995303;28;20785;-80
2021/04/14 02:01:29;;;;;;;11.30;3.97;;;3.00;80.70;;;2.73;67.52;102057.53;4995433;28;20108;-80
2021/04/14 02:03:55;;;;;;;9.00;3.88;;;2.90;80.70;;;2.71;66.83;102059.47;4995617;28;20503;-80
2021/04/14 02:06:22;;;;;;;8.15;3.47;;;2.90;80.80;;;2.72;66.90;102054.94;4993567;28;20054;-80
2021/04/14 02:08:49;;;;;;;9.15;3.55;;;2.90;80.60;;;2.69;67.42;102057.84;4995161;28;20168;-80
2021/04/14 02:11:17;;;;;;;10.02;3.97;;;2.90;80.90;;;2.68;66.76;102051.56;4993908;28;20144;-80
2021/04/14 02:13:46;;;;;;;9.30;3.63;;;2.90;80.80;;;2.72;66.53;102053.13;4995269;28;20128;-80
2021/04/14 02:16:16;;;;;;;9.32;4.20;;;2.90;80.70;;;2.65;67.25;102049.09;4993467;28;20082;-80
2021/04/14 02:18:44;;;;;;;8.55;3.90;;;2.80;80.90;;;2.58;67.24;102049.56;4994996;28;20836;-80
2021/04/14 02:21:11;;;;;;;9.30;3.70;;;2.80;80.90;;;2.56;67.70;102046.97;4994258;28;20503;-80
2021/04/14 02:23:41;;;;;;;9.88;3.83;;;2.80;81.00;;;2.56;67.79;102044.28;4995323;28;20053;-80
2021/04/14 02:26:15;;;;;;;7.95;4.10;;;2.80;81.00;;;2.58;67.33;102044.19;4994118;28;20062;-80
2021/04/14 02:28:44;;;;;;;9.25;3.65;;;2.80;80.90;;;2.56;67.58;102049.66;4991659;28;20054;-80
2021/04/14 02:31:13;;;;;;;10.35;3.72;;;2.70;81.10;;;2.59;67.37;102046.78;4994397;28;20056;-80
2021/04/14 02:33:40;;;;;;;9.73;3.80;;;2.70;81.30;;;2.62;67.11;102043.03;4995293;28;20469;-80
2021/04/14 02:36:08;;;;;;;10.80;3.72;;;2.70;81.30;;;2.55;67.63;102047.91;4994658;28;20069;-80
2021/04/14 02:38:35;;;;;;;9.40;3.72;;;2.70;81.50;;;2.57;67.25;102043.34;4994652;28;20046;-80
2021/04/14 02:41:05;;;;;;;8.52;4.00;;;2.70;81.30;;;2.56;67.08;102043.44;4993610;28;20045;-80
2021/04/14 02:43:32;;;;;;;7.60;3.45;;;2.70;81.60;;;2.57;67.46;102046.03;4994301;28;20058;-80
2021/04/14 02:45:58;;;;;;;6.85;3.70;;;2.70;81.60;;;2.50;67.67;102044.66;4994829;28;20085;-80
2021/04/14 02:48:26;;;;;;;9.00;3.88;;;2.80;81.80;;;2.54;67.57;102039.00;4994695;28;20054;-80
2021/04/14 02:50:53;;;;;;;6.90;3.65;;;2.70;81.80;;;2.59;67.24;102046.78;4995030;28;20463;-80
2021/04/14 02:53:20;;;;;;;7.85;4.03;;;2.70;82.00;;;2.66;67.21;102040.06;4993499;28;20077;-80
2021/04/14 02:55:46;;;;;;;9.30;3.95;;;2.60;81.80;;;2.66;67.46;102034.69;4994187;28;20049;-80
2021/04/14 02:58:13;;;;;;;6.68;3.40;;;2.70;82.10;;;2.61;67.23;102036.81;4993702;28;20050;-80
2021/04/14 03:00:40;;;;;;;8.32;3.78;;;2.70;82.00;;;2.57;67.08;102024.53;4995099;28;20129;-80
2021/04/14 03:03:07;;;;;;;9.77;4.00;;;2.70;82.00;;;2.58;66.87;102030.75;4994017;28;20050;-80
2021/04/14 03:05:35;;;;;;;6.85;3.60;;;2.60;81.70;;;2.57;67.23;102026.31;4993227;28;20050;-80
2021/04/14 03:08:03;;;;;;;6.28;3.58;;;2.60;81.70;;;2.55;66.84;102023.72;4994233;28;20042;-80
2021/04/14 03:10:31;;;;;;;8.00;3.40;;;2.60;81.80;;;2.53;67.66;102022.97;4994181;28;20132;-80
2021/04/14 03:12:59;;;;;;;8.57;3.70;;;2.60;81.90;;;2.49;67.42;102021.44;4994413;28;20563;-80
2021/04/14 03:15:32;;;;;;;11.18;3.65;;;2.60;82.00;;;2.48;67.40;102022.41;4992773;28;20061;-80
2021/04/14 03:17:59;;;;;;;7.65;3.95;;;2.60;81.80;;;2.47;67.72;102017.97;4994479;28;20050;-80
2021/04/14 03:20:26;;;;;;;10.05;4.35;;;2.60;81.80;;;2.51;67.98;102019.50;4993782;28;20042;-80
2021/04/14 03:22:55;;;;;;;6.82;3.45;;;2.60;81.90;;;2.48;67.39;102020.56;4993918;28;20129;-80
2021/04/14 03:25:24;;;;;;;8.20;3.53;;;2.60;82.00;;;2.45;67.17;102011.84;4993582;28;20141;-80
2021/04/14 03:27:51;;;;;;;7.82;4.25;;;2.60;81.80;;;2.47;67.27;102018.84;4992660;28;20060;-80
2021/04/14 03:30:20;;;;;;;10.95;3.88;;;2.50;82.00;;;2.43;67.23;102017.28;4993524;28;20057;-80
2021/04/14 03:32:46;;;;;;;8.23;4.28;;;2.50;82.00;;;2.40;67.61;102022.88;4993333;28;20038;-80
2021/04/14 03:35:16;;;;;;;7.22;3.60;;;2.50;82.20;;;2.40;67.46;102016.63;4992428;28;20050;-80
2021/04/14 03:37:42;;;;;;;9.50;4.28;;;2.50;82.30;;;2.38;68.18;102013.16;4991492;28;20088;-80
2021/04/14 03:40:13;;;;;;;9.25;3.90;;;2.50;82.00;;;2.32;68.04;102017.09;4993932;28;20491;-80
2021/04/14 03:42:40;;;;;;;8.63;3.95;;;2.50;82.30;;;2.28;68.63;102021.78;4992638;28;20043;-80
2021/04/14 03:45:13;;;;;;;10.18;3.90;;;2.50;82.50;;;2.29;68.10;102018.16;4994394;28;20478;-80
2021/04/14 03:47:40;;;;;;;9.52;3.70;;;2.50;82.00;;;2.29;68.09;102009.25;4993253;28;20042;-80
2021/04/14 03:50:11;;;;;;;9.15;4.00;;;2.50;82.40;;;2.23;68.40;102010.47;4994291;28;20129;-80
2021/04/14 03:52:38;;;;;;;7.70;3.93;;;2.50;82.50;;;2.23;68.80;102010.47;4992946;28;20487;-80
2021/04/14 03:55:08;;;;;;;8.63;3.88;;;2.50;82.50;;;2.20;68.63;102010.66;4993597;28;20289;-80
2021/04/14 03:57:36;;;;;;;9.45;4.28;;;2.40;82.40;;;2.29;68.33;102010.09;4993160;28;20077;-80
2021/04/14 04:00:05;;;;;;;11.35;4.28;;;2.40;82.40;;;2.37;67.55;102006.09;4994175;28;20057;-80
2021/04/14 04:02:39;;;;;;;9.52;3.92;;;2.40;82.40;;;2.30;67.89;102005.56;4994172;28;20050;-80
2021/04/14 04:05:08;;;;;;;8.45;3.95;;;2.40;82.40;;;2.30;67.80;102000.22;4992778;28;20081;-80
2021/04/14 04:07:35;;;;;;;6.50;3.67;;;2.40;82.40;;;2.27;67.47;102014.69;4990607;28;20066;-80
2021/04/14 04:10:02;;;;;;;7.72;3.63;;;2.40;82.40;;;2.31;67.80;102007.31;4993140;28;20050;-80
2021/04/14 04:12:29;;;;;;;10.32;3.67;;;2.40;82.50;;;2.33;68.33;102000.88;4993831;28;20066;-80
2021/04/14 04:14:58;;;;;;;10.90;3.97;;;2.50;82.80;;;2.40;67.95;102000.50;4993651;28;20057;-80
2021/04/14 04:17:25;;;;;;;8.80;3.97;;;2.40;83.00;;;2.55;67.76;101999.53;4992932;28;20042;-80
2021/04/14 04:19:51;;;;;;;8.55;3.78;;;2.40;83.10;;;2.49;67.42;102006.16;4993695;28;20096;-80
2021/04/14 04:22:19;;;;;;;8.52;4.43;;;2.40;82.60;;;2.33;67.82;102000.88;4993576;28;20049;-80
2021/04/14 04:24:48;;;;;;;8.30;4.13;;;2.40;82.60;;;2.29;67.43;102003.88;4992160;28;20043;-80
2021/04/14 04:27:15;;;;;;;7.25;3.80;;;2.30;82.40;;;2.25;67.65;102005.03;4992436;28;20546;-80
2021/04/14 04:29:42;;;;;;;12.43;4.72;;;2.30;82.40;;;2.22;68.27;102006.03;4992352;28;20046;-81
2021/04/14 04:32:10;;;;;;;11.70;4.95;;;2.30;82.50;;;2.20;67.99;102007.09;4992745;28;20054;-80
2021/04/14 04:34:37;;;;;;;11.13;4.25;;;2.30;82.80;;;2.21;67.99;102007.03;4993139;28;20387;-81
2021/04/14 04:37:04;;;;;;;8.95;4.20;;;2.30;82.90;;;2.22;68.55;102008.72;4993390;28;20120;-80
2021/04/14 04:39:31;;;;;;;8.13;4.32;;;2.30;83.00;;;2.22;68.62;102011.41;4995604;28;20583;-79
2021/04/14 04:41:58;;;;;;;11.90;3.85;;;2.30;83.20;;;2.19;69.02;102014.31;4994918;28;20047;-79
2021/04/14 04:44:25;;;;;;;7.43;3.75;;;2.40;83.20;;;2.25;69.08;102003.19;4993941;28;20046;-78
2021/04/14 04:46:52;;;;;;;9.65;3.80;;;2.40;83.40;;;2.23;68.85;102012.28;4990438;28;20046;-78
2021/04/14 04:49:20;;;;;;;12.38;4.13;;;2.40;83.40;;;2.24;69.44;102014.88;4992490;28;20369;-78
2021/04/14 04:51:46;;;;;;;9.90;4.03;;;2.40;83.40;;;2.33;68.33;102006.25;4995038;28;20422;-78
2021/04/14 04:54:13;;;;;;;11.55;4.68;;;2.40;83.40;;;2.39;68.57;102017.59;4995285;28;20077;-78
2021/04/14 04:56:40;;;;;;;9.68;4.05;;;2.40;83.60;;;2.31;69.29;102012.69;4993268;28;20078;-78
2021/04/14 04:59:07;;;;;;;13.45;4.40;;;2.40;83.70;;;2.33;68.84;102017.00;4995491;28;20050;-78
2021/04/14 05:01:35;;;;;;;9.48;4.25;;;2.40;83.70;;;2.31;69.47;102024.28;4995335;28;20078;-78
2021/04/14 05:04:02;;;;;;;7.35;3.83;;;2.40;83.80;;;2.26;69.23;102022.84;4994856;28;20043;-78
2021/04/14 05:06:30;;;;;;;10.13;4.68;;;2.40;83.80;;;2.26;69.25;102026.38;4995130;28;20046;-78
2021/04/14 05:08:56;;;;;;;9.60;4.40;;;2.40;83.80;;;2.28;69.68;102031.66;4994387;28;20080;-78
2021/04/14 05:11:23;;;;;;;9.82;4.18;;;2.50;83.90;;;2.28;69.35;102027.16;4994718;28;20054;-79
2021/04/14 05:13:50;;;;;;;10.13;3.95;;;2.40;83.90;;;2.33;69.82;102027.75;4994264;28;20081;-78
2021/04/14 05:16:17;;;;;;;10.35;4.43;;;2.40;84.00;;;2.32;69.73;102031.41;4994765;28;20475;-78
2021/04/14 05:18:44;;;;;;;9.18;4.55;;;2.50;84.20;;;2.33;70.25;102038.50;4994312;28;20053;-78
2021/04/14 05:21:10;;;;;;;9.75;5.00;;;2.50;84.30;;;2.38;69.69;102042.72;4995061;28;20069;-79
2021/04/14 05:23:39;;;;;;;14.85;5.78;;;2.50;84.40;;;2.31;69.87;102034.19;4994304;28;20080;-78
2021/04/14 05:26:06;;;;;;;10.30;6.00;;;2.50;84.50;;;2.35;70.30;102041.94;4993202;28;20510;-78
2021/04/14 05:28:33;;;;;;;16.58;7.65;;;2.60;84.60;;;2.44;69.92;102045.06;4993599;28;20069;-78
2021/04/14 05:31:00;;;;;;;16.35;8.95;;;2.60;84.60;;;2.49;70.05;102051.00;4994052;28;20096;-78
2021/04/14 05:33:26;;;;;;;15.15;7.93;;;2.60;84.80;;;2.53;70.02;102044.47;4993910;28;20046;-78
2021/04/14 05:35:55;;;;;;;17.33;10.15;;;2.70;84.80;;;2.52;70.63;102048.13;4993915;28;20073;-78
2021/04/14 05:38:22;;;;;;;21.70;11.45;;;2.70;85.00;;;2.57;70.50;102050.50;4993894;28;20053;-78
2021/04/14 05:40:50;;;;;;;17.38;7.55;;;2.70;84.90;;;2.72;70.16;102050.44;4993847;28;20529;-78
2021/04/14 05:43:20;;;;;;;10.05;5.57;;;2.70;85.00;;;2.88;68.89;102054.84;4993554;28;20050;-79
2021/04/14 05:45:52;;;;;;;11.05;5.47;;;2.80;84.90;;;2.92;69.13;102045.63;4992749;28;20058;-78
2021/04/14 05:48:19;;;;;;;17.20;5.53;;;2.80;84.80;;;2.95;69.17;102058.88;4994665;28;20422;-78
2021/04/14 05:50:46;;;;;;;11.13;5.05;;;2.90;85.00;;;2.90;70.17;102056.47;4991180;28;20128;-79
2021/04/14 05:53:13;;;;;;;10.70;4.57;;;2.90;85.20;;;2.96;69.39;102054.38;4994759;28;20062;-79
2021/04/14 05:55:40;;;;;;;8.98;4.80;;;2.90;85.10;;;2.95;69.48;102056.19;4994081;28;20395;-78
2021/04/14 05:58:07;;;;;;;13.13;5.28;;;3.00;84.90;;;2.98;70.44;102056.00;4993821;28;20038;-79
2021/04/14 06:00:35;;;;;;;9.60;5.00;;;3.00;84.80;;;3.05;69.48;102060.03;4994196;28;20136;-79
2021/04/14 06:03:02;;;;;;;11.43;4.90;;;3.10;84.80;;;3.22;69.06;102060.75;4994256;28;20050;-78
2021/04/14 06:05:28;;;;;;;20.52;6.28;;;3.20;84.60;;;3.25;68.96;102056.03;4993307;28;20046;-78
2021/04/14 06:07:55;;;;;;;12.65;5.93;;;3.20;84.30;;;3.27;69.08;102054.13;4993793;28;20129;-79
2021/04/14 06:10:24;;;;;;;10.48;5.88;;;3.30;84.30;;;3.39;68.88;102060.56;4994203;28;20050;-78
2021/04/14 06:12:54;;;;;;;13.00;5.82;;;3.40;84.30;;;3.47;69.61;102057.38;4994026;28;20038;-79
2021/04/14 06:15:31;;;;;;;11.95;6.15;;;3.50;84.60;;;3.59;68.59;102061.06;4993733;28;20042;-80
2021/04/14 06:17:58;;;;;;;12.27;5.85;;;3.60;84.80;;;3.66;68.94;102063.25;4994860;28;20495;-80
2021/04/14 06:20:27;;;;;;;13.48;6.10;;;3.60;85.10;;;3.73;68.67;102063.69;4994405;28;20197;-81
2021/04/14 06:22:57;;;;;;;12.00;5.85;;;3.70;85.00;;;3.77;68.25;102065.25;4992865;28;20042;-81
2021/04/14 06:25:25;;;;;;;19.00;6.60;;;3.70;84.20;;;3.83;68.66;102069.38;4993041;28;20058;-81
2021/04/14 06:27:57;;;;;;;18.50;6.35;;;3.80;84.10;;;3.88;68.64;102064.50;4994338;28;20124;-79
2021/04/14 06:30:26;;;;;;;21.35;7.10;;;3.90;83.90;;;3.91;68.25;102064.31;4994941;28;20118;-81
2021/04/14 06:32:53;;;;;;;14.52;6.43;;;3.90;83.80;;;3.92;68.56;102068.72;4993401;28;20069;-83
2021/04/14 06:35:22;;;;;;;14.43;5.97;;;4.00;84.00;;;3.98;68.43;102071.03;4992326;28;20061;-83
2021/04/14 06:37:48;;;;;;;14.65;6.18;;;4.10;84.00;;;4.03;68.92;102071.56;4993647;28;20042;-82
2021/04/14 06:40:46;;;;;;;13.35;6.10;;;4.10;83.90;;;4.07;68.73;102078.50;4990908;28;20463;-82
2021/04/14 06:43:34;;;;;;;14.00;5.85;;;4.20;84.20;;;4.10;68.07;102074.72;4995373;28;20128;-80
2021/04/14 06:46:14;;;;;;;11.50;5.32;;;4.30;83.50;;;4.13;68.58;102084.41;4994591;28;20410;-81
2021/04/14 06:48:51;;;;;;;15.18;5.53;;;4.30;83.40;;;4.14;68.38;102076.22;4994855;28;20073;-81
2021/04/14 06:51:35;;;;;;;13.43;5.82;;;4.40;83.40;;;4.18;68.75;102074.19;4993273;28;20085;-81
2021/04/14 06:54:18;;;;;;;12.88;5.55;;;4.40;83.20;;;4.24;68.12;102074.63;4993977;28;20054;-81
2021/04/14 06:56:49;;;;;;;13.95;5.93;;;4.50;83.10;;;4.29;68.15;102074.31;4993740;28;20050;-81
2021/04/14 06:59:38;;;;;;;18.00;6.20;;;4.50;83.10;;;4.33;68.29;102077.66;4994734;28;20089;-81
2021/04/14 07:02:09;;;;;;;15.82;6.30;;;4.60;82.80;;;4.38;69.93;102097.06;4993815;28;20046;-81
2021/04/14 07:04:43;;;;;;;18.35;6.85;;;4.70;83.20;;;4.44;70.28;102096.66;4987472;28;20247;-81
2021/04/14 07:07:24;;;;;;;15.18;7.13;;;4.80;83.80;;;4.48;70.06;102090.09;4990780;28;20038;-81
2021/04/14 07:09:56;;;;;;;18.38;8.60;;;4.90;83.90;;;4.55;69.86;102101.28;4993968;28;20047;-81
2021/04/14 07:12:24;;;;;;;20.75;9.93;;;5.00;83.70;;;4.60;69.28;102097.31;4993600;28;20050;-80
2021/04/14 07:14:54;;;;;;;25.40;9.80;;;5.00;83.10;;;4.62;68.97;102099.91;4991342;28;20042;-81
2021/04/14 07:17:32;;;;;;;21.52;9.85;;;5.10;82.70;;;4.65;68.53;102105.09;4987794;28;20096;-81
2021/04/14 07:20:19;;;;;;;20.63;10.80;;;5.30;82.20;;;4.69;67.89;102107.47;4995396;28;20077;-81
2021/04/14 07:23:22;;;;;;;22.95;10.65;;;5.20;81.10;;;4.75;67.77;102116.09;4994676;28;20054;-81
2021/04/14 07:25:56;;;;;;;22.98;9.85;;;5.20;81.10;;;4.78;67.79;102119.47;4992496;28;20050;-80
2021/04/14 07:28:37;;;;;;;20.63;9.40;;;5.30;80.70;;;4.79;67.55;102118.47;4994373;28;20530;-82
2021/04/14 07:31:11;;;;;;;22.92;9.98;;;5.20;80.80;;;4.80;68.43;102111.25;4995893;28;20046;-81
2021/04/14 07:33:55;;;;;;;17.70;10.45;;;5.20;81.20;;;4.80;68.36;102119.34;4995614;28;20042;-80
2021/04/14 07:36:33;;;;;;;21.02;10.27;;;5.30;81.50;;;4.80;69.16;102119.34;4994991;28;20427;-81
2021/04/14 07:39:11;;;;;;;20.85;10.07;;;5.20;81.90;;;4.81;69.08;102118.38;4995019;28;20049;-80
2021/04/14 07:41:52;;;;;;;24.13;10.55;;;5.30;82.60;;;4.85;69.26;102117.19;4995410;28;20046;-79
2021/04/14 07:44:32;;;;;;;21.85;10.85;;;5.20;82.90;;;4.84;69.99;102126.25;4994431;28;20097;-79
2021/04/14 07:46:58;;;;;;;28.13;10.63;;;5.30;83.50;;;4.83;70.15;102124.50;4994853;28;20546;-79
2021/04/14 07:49:33;;;;;;;18.88;9.50;;;5.30;83.70;;;4.84;70.14;102123.56;4993529;28;20046;-79
2021/04/14 07:51:59;;;;;;;19.85;9.07;;;5.30;83.70;;;4.87;70.84;102126.91;4992791;28;20049;-80
2021/04/14 07:54:40;;;;;;;18.38;9.52;;;5.20;84.10;;;4.85;71.44;102125.25;4989389;28;20095;-79
2021/04/14 07:57:09;;;;;;;18.57;9.90;;;5.20;84.60;;;4.85;71.26;102126.13;4987775;28;20050;-79
2021/04/14 07:59:44;;;;;;;18.40;8.98;;;5.20;84.80;;;4.84;71.58;102127.09;4988264;28;20045;-79
2021/04/14 08:02:16;;;;;;;18.33;9.98;;;5.20;84.90;;;4.84;71.53;102126.25;4994927;28;20046;-79
2021/04/14 08:04:46;;;;;;;19.25;10.40;;;5.30;85.30;;;4.87;72.02;102112.53;4991796;28;20046;-79
2021/04/14 08:07:17;;;;;;;22.70;11.63;;;5.30;85.60;;;4.86;72.12;102105.44;4994433;28;20050;-79
2021/04/14 08:09:51;;;;;;;22.45;10.10;;;5.30;85.90;;;4.84;72.39;102104.69;5000474;28;20129;-79
2021/04/14 08:12:29;;;;;;;21.00;10.80;;;5.30;85.90;;;4.89;72.90;102099.78;4993154;28;20104;-79
2021/04/14 08:15:11;;;;;;;23.05;10.85;;;5.30;86.60;;;4.92;73.01;102099.59;4992664;28;20043;-79
2021/04/14 08:17:38;;;;;;;19.23;10.80;;;5.30;87.20;;;4.99;73.42;102100.00;4989591;28;20074;-82
2021/04/14 08:20:13;;;;;;;22.35;11.68;;;5.40;87.30;;;5.05;73.61;102097.75;4997280;28;20051;-82
2021/04/14 08:22:40;;;;;;;20.00;11.27;;;5.50;88.00;;;5.09;74.73;102096.56;4995214;28;20092;-82
2021/04/14 08:25:09;;;;;;;32.83;14.07;;;5.60;87.80;;;5.17;75.34;102095.16;4994760;28;20054;-81
2021/04/14 08:27:45;;;;;;;23.13;10.82;;;5.70;88.10;;;5.18;76.48;102091.47;4993987;28;20054;-83
2021/04/14 08:30:15;;;;;;;22.65;12.02;;;5.80;88.60;;;5.26;77.72;102099.88;4995963;28;20042;-81
2021/04/14 08:32:45;;;;;;;237.68;34.92;;;5.90;88.80;;;5.33;77.54;102095.78;4996125;28;20534;-81
2021/04/14 08:35:25;;;;;;;34.70;12.55;;;6.00;88.50;;;5.41;77.50;102097.91;4994789;28;20097;-80
2021/04/14 08:38:02;;;;;;;21.23;10.68;;;6.10;88.50;;;5.48;76.48;102093.75;4995703;28;20042;-81
2021/04/14 08:40:30;;;;;;;18.30;10.00;;;6.20;88.10;;;5.50;75.79;102086.41;4991421;28;20038;-81
2021/04/14 08:43:08;;;;;;;17.42;9.80;;;6.30;87.20;;;5.56;76.60;102085.97;4994680;28;20050;-81
2021/04/14 08:45:43;;;;;;;16.60;9.13;;;6.40;87.70;;;5.61;75.83;102086.47;4989728;28;20046;-81
2021/04/14 08:48:19;;;;;;;16.50;9.80;;;6.50;86.90;;;5.71;76.40;102089.38;4996952;28;20046;-81
2021/04/14 08:50:52;;;;;;;16.73;9.90;;;6.60;87.00;;;5.76;75.97;102087.19;4994252;28;20049;-81
2021/04/14 08:53:32;;;;;;;17.15;9.25;;;6.70;86.90;;;5.83;76.89;102082.22;4993919;28;20046;-81
2021/04/14 08:55:59;;;;;;;18.40;10.27;;;6.80;87.10;;;5.86;76.15;102072.03;4995151;28;20061;-81
2021/04/14 08:58:26;;;;;;;17.08;10.05;;;6.80;87.00;;;5.95;76.59;102086.72;4993206;28;20121;-82
2021/04/14 09:00:55;;;;;;;20.70;9.75;;;6.90;87.00;;;6.01;76.33;102079.97;4992764;28;20514;-81
2021/04/14 09:03:25;;;;;;;15.98;9.85;;;7.00;86.80;;;6.10;75.20;102081.97;4984261;28;20051;-82
2021/04/14 09:05:54;;;;;;;18.17;9.77;;;7.20;85.90;;;6.19;76.89;102077.72;4992968;28;20034;-81
2021/04/14 09:08:29;;;;;;;17.88;10.27;;;7.20;86.10;;;6.24;75.20;102078.22;4992996;28;20388;-81
2021/04/14 09:10:59;;;;;;;17.17;9.30;;;7.30;85.40;;;6.22;74.28;102070.22;4994278;28;20046;-81
2021/04/14 09:13:32;;;;;;;19.30;9.80;;;7.40;83.80;;;6.28;73.30;102062.63;4995199;28;20042;-81
2021/04/14 09:16:03;;;;;;;15.93;9.70;;;7.50;83.60;;;6.37;73.73;102061.91;4994488;28;20519;-81
2021/04/14 09:18:34;;;;;;;18.25;10.10;;;7.60;83.60;;;6.41;73.87;102061.56;4993593;28;20047;-81
2021/04/14 09:21:13;;;;;;;16.73;8.75;;;7.60;83.10;;;6.45;72.28;102054.94;4995987;28;20046;-81
2021/04/14 09:23:54;;;;;;;17.90;9.98;;;7.70;82.10;;;6.50;73.01;102057.28;4996492;28;20057;-82
2021/04/14 09:26:31;;;;;;;19.10;10.10;;;7.70;82.20;;;6.53;71.62;102054.34;4999268;28;20050;-81
2021/04/14 09:28:59;;;;;;;15.38;9.32;;;7.70;81.10;;;6.56;71.06;102054.09;4997300;28;20050;-81
2021/04/14 09:31:40;;;;;;;14.70;8.85;;;7.70;80.10;;;6.59;70.32;102058.41;5000152;28;20053;-81
2021/04/14 09:34:34;;;;;;;15.35;9.98;;;7.70;80.00;;;6.58;69.08;102052.13;4998837;28;20070;-81
2021/04/14 09:37:08;;;;;;;18.23;10.18;;;7.70;79.60;;;6.61;69.45;102057.31;4988749;28;20062;-82
2021/04/14 09:39:41;;;;;;;17.52;10.55;;;7.70;79.60;;;6.63;69.63;102046.38;4998189;28;20038;-82
2021/04/14 09:42:17;;;;;;;16.52;9.25;;;7.70;79.40;;;6.63;69.01;102043.66;5002891;28;20064;-82
2021/04/14 09:44:46;;;;;;;19.55;10.02;;;7.80;79.30;;;6.64;67.66;102043.53;4996800;28;20047;-81
2021/04/14 09:47:33;;;;;;;17.98;9.77;;;7.80;78.60;;;6.63;68.43;102041.81;4998034;28;20042;-81
2021/04/14 09:50:16;;;;;;;20.98;11.10;;;7.90;78.00;;;6.72;70.19;102039.34;4992001;28;20049;-81
2021/04/14 09:52:53;;;;;;;20.42;10.07;;;7.90;78.90;;;6.78;68.69;102039.72;5002738;28;20045;-81
2021/04/14 09:55:26;;;;;;;20.35;10.18;;;8.00;77.60;;;6.81;68.26;102033.19;4996893;28;20125;-81
2021/04/14 09:57:54;;;;;;;17.13;10.35;;;8.10;77.10;;;6.84;67.30;102041.09;4997753;28;20388;-82
2021/04/14 10:00:26;;;;;;;16.63;10.05;;;8.20;76.10;;;6.87;65.43;102039.97;4995967;28;20065;-81
2021/04/14 10:02:54;;;;;;;18.05;10.48;;;8.20;75.60;;;6.89;63.44;102029.88;4999644;28;20053;-82
2021/04/14 10:05:26;;;;;;;16.42;10.30;;;8.30;74.40;;;6.90;62.25;102028.91;5000043;28;20054;-81
2021/04/14 10:08:01;;;;;;;19.10;10.65;;;8.30;73.20;;;6.94;63.85;102027.69;5006201;28;20047;-82
2021/04/14 10:10:29;;;;;;;39.40;13.45;;;8.30;72.90;;;6.97;64.98;102031.00;4996665;28;20084;-79
2021/04/14 10:12:57;;;;;;;19.20;11.10;;;8.30;73.70;;;7.01;64.08;102031.63;5005892;28;20090;-79
2021/04/14 10:15:33;;;;;;;17.95;10.77;;;8.20;72.50;;;7.01;63.71;102021.66;5010743;28;20053;-79
2021/04/14 10:18:05;;;;;;;14.35;9.68;;;8.20;72.20;;;7.04;63.08;102021.41;4991927;28;20049;-79
2021/04/14 10:20:35;;;;;;;17.13;10.32;;;8.20;70.30;;;7.08;63.33;102018.44;4990162;28;20152;-79
2021/04/14 10:23:09;;;;;;;16.20;10.50;;;8.30;71.70;;;7.11;63.09;102008.22;4996135;28;20482;-81
2021/04/14 10:25:40;;;;;;;24.08;11.20;;;8.30;72.60;;;7.13;63.26;102010.81;5001228;28;20105;-82
2021/04/14 10:28:10;;;;;;;18.38;10.95;;;8.30;72.40;;;7.14;63.00;102009.81;4997779;28;20085;-82
2021/04/14 10:30:41;;;;;;;18.65;9.95;;;8.30;72.50;;;7.14;62.09;102007.09;4996272;28;20038;-82
2021/04/14 10:33:13;;;;;;;;;;;8.30;70.60;;;7.17;62.11;102004.16;4998437;28;20043;-81